createdAt,value
2019-02-20T00:02:25.538Z,4.50
2019-02-20T00:04:52.212Z,5.13
2019-02-20T00:07:18.941Z,4.90
2019-02-20T00:09:45.787Z,4.70
2019-02-20T00:12:12.481Z,4.87
2019-02-20T00:14:39.277Z,5.07
2019-02-20T00:17:05.995Z,4.47
2019-02-20T00:19:32.802Z,4.20
2019-02-20T00:21:59.530Z,5.13
2019-02-20T00:24:26.305Z,5.20
2019-02-20T00:26:53.142Z,4.60
2019-02-20T00:29:19.910Z,5.33
2019-02-20T00:31:46.703Z,4.33
2019-02-20T00:34:13.344Z,5.73
2019-02-20T00:36:40.026Z,4.33
2019-02-20T00:39:08.692Z,4.70
2019-02-20T00:41:35.280Z,3.50
2019-02-20T00:44:24.391Z,4.10
2019-02-20T00:47:03.384Z,4.97
2019-02-20T00:49:37.053Z,4.60
2019-02-20T00:52:32.492Z,4.37
2019-02-20T00:54:59.228Z,4.30
2019-02-20T00:57:25.969Z,6.20
2019-02-20T00:59:52.737Z,3.10
2019-02-20T01:02:19.576Z,5.30
2019-02-20T01:04:46.276Z,4.70
2019-02-20T01:07:13.103Z,4.37
2019-02-20T01:09:39.875Z,4.53
2019-02-20T01:12:06.739Z,4.43
2019-02-20T01:14:33.443Z,3.70
2019-02-20T01:17:00.241Z,5.13
2019-02-20T01:19:27.053Z,4.83
2019-02-20T01:21:53.772Z,5.10
2019-02-20T01:24:20.590Z,3.80
2019-02-20T01:26:47.298Z,4.60
2019-02-20T01:29:13.974Z,5.50
2019-02-20T01:31:40.693Z,4.77
2019-02-20T01:34:07.383Z,3.93
2019-02-20T01:36:34.074Z,4.93
2019-02-20T01:39:00.764Z,3.93
2019-02-20T01:41:27.405Z,4.00
2019-02-20T01:43:54.116Z,4.60
2019-02-20T01:46:20.952Z,4.43
2019-02-20T01:48:47.567Z,4.13
2019-02-20T01:51:14.358Z,4.77
2019-02-20T01:53:41.058Z,4.97
2019-02-20T01:56:08.835Z,4.37
2019-02-20T01:58:35.544Z,4.60
2019-02-20T02:01:02.326Z,4.87
2019-02-20T02:03:29.110Z,5.03
2019-02-20T02:05:55.820Z,5.17
2019-02-20T02:08:22.570Z,4.93
2019-02-20T02:10:49.237Z,4.47
2019-02-20T02:13:15.971Z,4.10
2019-02-20T02:15:42.658Z,4.77
2019-02-20T02:18:09.377Z,4.90
2019-02-20T02:20:36.201Z,3.60
2019-02-20T02:23:03.020Z,5.07
2019-02-20T02:25:29.779Z,3.40
2019-02-20T02:27:56.464Z,3.73
2019-02-20T02:30:23.215Z,4.10
2019-02-20T02:32:49.779Z,4.67
2019-02-20T02:35:16.372Z,4.80
2019-02-20T02:37:42.923Z,4.90
2019-02-20T02:40:09.600Z,3.47
2019-02-20T02:42:36.275Z,5.53
2019-02-20T02:45:03.033Z,3.93
2019-02-20T02:47:29.812Z,4.30
2019-02-20T02:49:56.385Z,5.27
2019-02-20T02:52:23.083Z,4.40
2019-02-20T02:54:49.756Z,3.87
2019-02-20T02:57:16.409Z,4.73
2019-02-20T02:59:43.156Z,4.73
2019-02-20T03:02:09.808Z,4.13
2019-02-20T03:04:36.489Z,4.93
2019-02-20T03:07:03.180Z,4.80
2019-02-20T03:09:29.814Z,4.13
2019-02-20T03:11:56.470Z,4.73
2019-02-20T03:14:23.084Z,3.37
2019-02-20T03:16:49.738Z,4.37
2019-02-20T03:19:16.445Z,4.60
2019-02-20T03:21:43.093Z,4.37
2019-02-20T03:24:09.940Z,4.33
2019-02-20T03:26:36.510Z,3.73
2019-02-20T03:29:03.149Z,4.90
2019-02-20T03:31:29.900Z,4.23
2019-02-20T03:33:56.721Z,3.80
2019-02-20T03:36:23.670Z,3.67
2019-02-20T03:38:50.313Z,3.87
2019-02-20T03:41:17.007Z,4.07
2019-02-20T03:43:43.645Z,4.97
2019-02-20T03:46:10.345Z,5.47
2019-02-20T03:48:37.011Z,4.30
2019-02-20T03:51:03.694Z,4.07
2019-02-20T03:53:30.394Z,4.53
2019-02-20T03:55:57.170Z,4.20
2019-02-20T03:58:23.773Z,4.60
2019-02-20T04:00:50.453Z,4.67
2019-02-20T04:03:17.229Z,4.63
2019-02-20T04:05:43.757Z,4.73
2019-02-20T04:08:10.560Z,5.37
2019-02-20T04:10:37.214Z,3.90
2019-02-20T04:13:03.989Z,4.67
2019-02-20T04:15:30.842Z,4.80
2019-02-20T04:17:57.567Z,5.03
2019-02-20T04:20:24.328Z,5.20
2019-02-20T04:22:50.879Z,5.13
2019-02-20T04:25:17.463Z,4.03
2019-02-20T04:27:44.123Z,4.30
2019-02-20T04:30:13.359Z,5.03
2019-02-20T04:32:40.055Z,3.60
2019-02-20T04:35:07.423Z,5.20
2019-02-20T04:37:34.103Z,4.33
2019-02-20T04:40:00.843Z,5.33
2019-02-20T04:42:27.673Z,4.27
2019-02-20T04:44:54.354Z,4.73
2019-02-20T04:47:21.147Z,4.37
2019-02-20T04:49:47.934Z,4.40
2019-02-20T04:52:14.791Z,4.37
2019-02-20T04:54:41.371Z,5.87
2019-02-20T04:57:08.049Z,4.30
2019-02-20T04:59:34.813Z,4.27
2019-02-20T05:02:01.691Z,4.93
2019-02-20T05:04:28.447Z,4.33
2019-02-20T05:06:56.297Z,5.97
2019-02-20T05:09:23.056Z,5.17
2019-02-20T05:11:49.739Z,4.80
2019-02-20T05:14:16.344Z,4.73
2019-02-20T05:16:43.083Z,4.93
2019-02-20T05:19:09.883Z,4.80
2019-02-20T05:21:36.518Z,4.90
2019-02-20T05:24:03.212Z,4.73
2019-02-20T05:26:29.889Z,4.23
2019-02-20T05:28:56.617Z,4.93
2019-02-20T05:31:23.252Z,5.00
2019-02-20T05:33:49.937Z,4.60
2019-02-20T05:36:16.725Z,4.50
2019-02-20T05:38:43.419Z,5.63
2019-02-20T05:41:10.218Z,5.53
2019-02-20T05:43:36.727Z,5.37
2019-02-20T05:46:03.480Z,5.17
2019-02-20T05:48:30.176Z,6.60
2019-02-20T05:50:56.930Z,4.57
2019-02-20T05:53:23.660Z,4.50
2019-02-20T05:55:50.271Z,5.70
2019-02-20T05:58:16.956Z,5.53
2019-02-20T06:00:43.508Z,4.20
2019-02-20T06:03:10.403Z,5.07
2019-02-20T06:05:37.046Z,4.83
2019-02-20T06:08:03.702Z,4.47
2019-02-20T06:10:30.370Z,4.90
2019-02-20T06:12:56.954Z,4.37
2019-02-20T06:15:23.727Z,3.57
2019-02-20T06:17:50.287Z,4.20
2019-02-20T06:20:17.089Z,4.63
2019-02-20T06:22:43.651Z,5.30
2019-02-20T06:25:10.580Z,4.30
2019-02-20T06:27:37.243Z,4.57
2019-02-20T06:30:06.429Z,5.57
2019-02-20T06:32:33.179Z,4.83
2019-02-20T06:34:59.955Z,4.60
2019-02-20T06:37:26.531Z,4.93
2019-02-20T06:39:53.239Z,4.27
2019-02-20T06:42:19.946Z,4.07
2019-02-20T06:44:46.593Z,3.67
2019-02-20T06:47:13.355Z,4.27
2019-02-20T06:49:40.064Z,3.87
2019-02-20T06:52:06.860Z,4.23
2019-02-20T06:54:33.554Z,5.07
2019-02-20T06:57:00.219Z,4.63
2019-02-20T06:59:28.269Z,5.23
2019-02-20T07:01:54.930Z,4.30
2019-02-20T07:04:21.810Z,4.30
2019-02-20T07:07:16.939Z,5.27
2019-02-20T07:10:01.807Z,5.27
2019-02-20T07:12:46.007Z,5.60
2019-02-20T07:15:49.828Z,4.90
2019-02-20T07:18:23.779Z,6.17
2019-02-20T07:21:47.655Z,5.80
2019-02-20T07:24:40.493Z,4.87
2019-02-20T07:27:40.221Z,5.23
2019-02-20T07:30:09.301Z,5.43
2019-02-20T07:32:35.881Z,5.77
2019-02-20T07:35:02.595Z,5.60
2019-02-20T07:37:29.223Z,5.93
2019-02-20T07:39:57.419Z,6.47
2019-02-20T07:42:24.462Z,6.13
2019-02-20T07:44:51.128Z,5.50
2019-02-20T07:47:17.819Z,5.97
2019-02-20T07:49:44.360Z,5.67
2019-02-20T07:52:11.046Z,6.00
2019-02-20T07:54:37.895Z,5.07
2019-02-20T07:57:04.685Z,5.63
2019-02-20T07:59:31.449Z,4.93
2019-02-20T08:01:58.120Z,5.10
2019-02-20T08:04:24.930Z,5.87
2019-02-20T08:06:51.587Z,4.80
2019-02-20T08:09:18.250Z,5.83
2019-02-20T08:11:44.989Z,5.53
2019-02-20T08:14:11.704Z,5.43
2019-02-20T08:16:38.379Z,5.90
2019-02-20T08:19:05.020Z,5.43
2019-02-20T08:21:31.780Z,6.03
2019-02-20T08:23:58.422Z,6.20
2019-02-20T08:26:25.120Z,6.10
2019-02-20T08:28:51.785Z,5.03
2019-02-20T08:31:18.434Z,6.20
2019-02-20T08:33:45.081Z,5.47
2019-02-20T08:36:11.797Z,5.43
2019-02-20T08:38:39.528Z,6.17
2019-02-20T08:41:06.324Z,5.53
2019-02-20T08:43:32.862Z,6.27
2019-02-20T08:45:59.531Z,6.27
2019-02-20T08:48:26.595Z,6.33
2019-02-20T08:50:53.622Z,5.27
2019-02-20T08:53:20.294Z,6.90
2019-02-20T08:55:47.084Z,6.87
2019-02-20T08:58:13.779Z,6.17
2019-02-20T09:00:40.555Z,5.47
2019-02-20T09:03:07.170Z,5.77
2019-02-20T09:05:34.279Z,5.87
2019-02-20T09:08:01.089Z,6.53
2019-02-20T09:10:27.761Z,5.93
2019-02-20T09:12:54.361Z,6.00
2019-02-20T09:15:21.042Z,6.23
2019-02-20T09:17:47.710Z,5.73
2019-02-20T09:20:14.460Z,6.30
2019-02-20T09:22:41.120Z,5.37
2019-02-20T09:25:08.649Z,5.23
2019-02-20T09:27:35.413Z,4.57
2019-02-20T09:30:02.136Z,5.60
2019-02-20T09:32:28.772Z,5.93
2019-02-20T09:34:55.424Z,5.67
2019-02-20T09:37:22.133Z,7.03
2019-02-20T09:39:48.809Z,5.40
2019-02-20T09:42:17.529Z,6.23
2019-02-20T09:44:48.105Z,4.60
2019-02-20T09:47:15.241Z,6.83
2019-02-20T09:49:41.891Z,6.67
2019-02-20T09:52:08.683Z,6.20
2019-02-20T09:54:35.422Z,6.10
2019-02-20T09:57:02.009Z,6.47
2019-02-20T09:59:28.780Z,5.97
2019-02-20T10:01:55.599Z,5.80
2019-02-20T10:04:22.236Z,6.07
2019-02-20T10:06:48.876Z,5.87
2019-02-20T10:09:16.309Z,6.80
2019-02-20T10:11:43.178Z,7.57
2019-02-20T10:14:09.920Z,6.53
2019-02-20T10:16:36.597Z,6.67
2019-02-20T10:19:03.352Z,6.47
2019-02-20T10:21:30.012Z,5.83
2019-02-20T10:23:56.698Z,6.23
2019-02-20T10:26:23.387Z,6.63
2019-02-20T10:28:50.162Z,5.87
2019-02-20T10:31:17.805Z,7.03
2019-02-20T10:33:44.469Z,6.80
2019-02-20T10:36:11.102Z,7.03
2019-02-20T10:38:37.758Z,6.67
2019-02-20T10:41:04.535Z,6.57
2019-02-20T10:43:31.091Z,7.63
2019-02-20T10:45:58.817Z,6.00
2019-02-20T10:48:25.654Z,7.43
2019-02-20T10:50:52.327Z,6.80
2019-02-20T10:53:19.018Z,8.43
2019-02-20T10:55:45.676Z,6.67
2019-02-20T10:58:12.681Z,7.67
2019-02-20T11:00:39.264Z,6.90
2019-02-20T11:03:06.095Z,8.50
2019-02-20T11:05:33.400Z,7.50
2019-02-20T11:08:00.161Z,7.27
2019-02-20T11:10:26.833Z,7.60
2019-02-20T11:12:53.516Z,8.60
2019-02-20T11:15:20.295Z,7.83
2019-02-20T11:17:46.962Z,7.47
2019-02-20T11:20:13.930Z,8.17
2019-02-20T11:22:40.631Z,8.17
2019-02-20T11:25:08.066Z,7.10
2019-02-20T11:27:34.666Z,8.03
2019-02-20T11:30:01.328Z,6.97
2019-02-20T11:32:27.924Z,6.97
2019-02-20T11:34:54.679Z,6.97
2019-02-20T11:37:21.466Z,7.33
2019-02-20T11:39:48.251Z,7.00
2019-02-20T11:42:14.937Z,7.00
2019-02-20T11:44:41.728Z,6.93
2019-02-20T11:47:08.470Z,7.27
2019-02-20T11:49:35.020Z,6.47
2019-02-20T11:52:01.591Z,6.97
2019-02-20T11:54:28.281Z,7.53
2019-02-20T11:56:54.956Z,7.37
2019-02-20T11:59:21.703Z,8.00
2019-02-20T12:01:54.314Z,6.90
2019-02-20T12:04:21.024Z,7.57
2019-02-20T12:06:47.810Z,8.73
2019-02-20T12:09:14.723Z,6.97
2019-02-20T12:11:41.387Z,9.27
2019-02-20T12:14:07.964Z,8.27
2019-02-20T12:16:34.639Z,7.87
2019-02-20T12:19:01.367Z,7.87
2019-02-20T12:21:28.172Z,8.07
2019-02-20T12:23:55.054Z,7.97
2019-02-20T12:26:21.912Z,8.70
2019-02-20T12:28:48.692Z,8.13
2019-02-20T12:31:15.437Z,8.13
2019-02-20T12:33:42.106Z,8.20
2019-02-20T12:36:08.872Z,7.67
2019-02-20T12:38:37.185Z,9.03
2019-02-20T12:41:04.009Z,8.13
2019-02-20T12:43:30.686Z,8.37
2019-02-20T12:45:57.356Z,7.60
2019-02-20T12:48:24.098Z,9.07
2019-02-20T12:50:50.696Z,7.63
2019-02-20T12:53:17.446Z,9.13
2019-02-20T12:55:44.204Z,8.23
2019-02-20T12:58:10.872Z,8.17
2019-02-20T13:00:37.627Z,7.67
2019-02-20T13:03:04.518Z,8.77
2019-02-20T13:05:31.270Z,8.57
2019-02-20T13:07:58.069Z,8.17
2019-02-20T13:10:24.711Z,8.90
2019-02-20T13:12:51.287Z,8.27
2019-02-20T13:15:19.180Z,8.00
2019-02-20T13:17:46.097Z,8.10
2019-02-20T13:20:12.790Z,8.07
2019-02-20T13:22:39.486Z,7.83
2019-02-20T13:25:06.490Z,7.00
2019-02-20T13:27:33.168Z,7.90
2019-02-20T13:30:00.264Z,8.20
2019-02-20T13:32:27.097Z,7.83
2019-02-20T13:34:53.929Z,7.33
2019-02-20T13:37:20.599Z,8.87
2019-02-20T13:39:47.275Z,7.53
2019-02-20T13:42:14.407Z,7.57
2019-02-20T13:44:41.065Z,7.90
2019-02-20T13:47:07.860Z,7.60
2019-02-20T13:49:34.421Z,9.00
2019-02-20T13:52:01.113Z,8.37
2019-02-20T13:54:27.777Z,8.40
2019-02-20T13:57:01.779Z,8.03
2019-02-20T13:59:24.911Z,7.90
2019-02-20T14:01:51.974Z,7.37
2019-02-20T14:04:18.703Z,8.53
2019-02-20T14:06:45.514Z,9.10
2019-02-20T14:09:12.154Z,8.73
2019-02-20T14:11:38.940Z,7.83
2019-02-20T14:14:05.905Z,6.50
2019-02-20T14:16:32.621Z,8.37
2019-02-20T14:18:59.313Z,8.43
2019-02-20T14:21:26.978Z,8.57
2019-02-20T14:23:53.646Z,8.20
2019-02-20T14:26:20.374Z,8.37
2019-02-20T14:28:47.060Z,8.10
2019-02-20T14:31:13.847Z,9.00
2019-02-20T14:33:40.529Z,8.67
2019-02-20T14:36:07.232Z,8.00
2019-02-20T14:38:33.888Z,7.73
2019-02-20T14:41:01.085Z,6.87
2019-02-20T14:43:27.825Z,6.93
2019-02-20T14:45:54.512Z,6.67
2019-02-20T14:48:21.435Z,7.10
2019-02-20T14:50:48.097Z,6.97
2019-02-20T14:53:14.907Z,6.80
2019-02-20T14:55:41.608Z,7.63
2019-02-20T14:58:08.330Z,7.00
2019-02-20T15:00:35.086Z,6.43
2019-02-20T15:03:01.847Z,7.13
2019-02-20T15:05:30.431Z,6.43
2019-02-20T15:07:57.343Z,7.13
2019-02-20T15:10:24.045Z,6.73
2019-02-20T15:12:50.880Z,6.77
2019-02-20T15:15:18.974Z,6.03
2019-02-20T15:17:45.968Z,6.60
2019-02-20T15:20:13.014Z,7.23
2019-02-20T15:22:39.694Z,6.13
2019-02-20T15:25:06.586Z,5.70
2019-02-20T15:27:33.138Z,5.60
2019-02-20T15:29:59.987Z,5.67
2019-02-20T15:32:26.769Z,6.20
2019-02-20T15:34:53.535Z,6.20
2019-02-20T15:37:20.213Z,6.07
2019-02-20T15:39:47.316Z,6.10
2019-02-20T15:42:14.082Z,6.13
2019-02-20T15:44:40.747Z,6.70
2019-02-20T15:47:07.720Z,7.20
2019-02-20T15:49:34.623Z,6.50
2019-02-20T15:52:01.251Z,5.67
2019-02-20T15:54:27.935Z,6.77
2019-02-20T15:56:54.712Z,6.37
2019-02-20T15:59:21.379Z,7.77
2019-02-20T16:01:48.445Z,6.67
2019-02-20T16:04:15.108Z,7.83
2019-02-20T16:06:41.879Z,6.93
2019-02-20T16:09:08.564Z,7.03
2019-02-20T16:11:35.149Z,7.47
2019-02-20T16:14:01.975Z,6.43
2019-02-20T16:16:28.632Z,6.57
2019-02-20T16:18:55.322Z,6.70
2019-02-20T16:21:22.258Z,7.37
2019-02-20T16:23:48.992Z,7.60
2019-02-20T16:26:15.582Z,6.77
2019-02-20T16:28:42.815Z,6.80
2019-02-20T16:31:09.506Z,7.70
2019-02-20T16:33:36.236Z,6.90
2019-02-20T16:36:03.052Z,8.23
2019-02-20T16:38:29.859Z,7.90
2019-02-20T16:40:56.944Z,7.90
2019-02-20T16:43:23.792Z,7.10
2019-02-20T16:45:50.517Z,7.57
2019-02-20T16:48:17.400Z,8.67
2019-02-20T16:50:44.052Z,8.33
2019-02-20T16:53:10.843Z,9.20
2019-02-20T16:55:37.612Z,9.27
2019-02-20T16:58:04.384Z,9.30
2019-02-20T17:00:31.404Z,7.93
2019-02-20T17:02:58.215Z,7.97
2019-02-20T17:05:25.054Z,7.33
2019-02-20T17:07:51.901Z,6.63
2019-02-20T17:10:18.725Z,5.73
2019-02-20T17:12:45.623Z,6.97
2019-02-20T17:15:12.398Z,5.60
2019-02-20T17:17:39.318Z,6.33
2019-02-20T17:20:08.215Z,5.63
2019-02-20T17:22:35.075Z,7.23
2019-02-20T17:25:02.060Z,6.17
2019-02-20T17:27:28.943Z,7.63
2019-02-20T17:29:56.762Z,7.03
2019-02-20T17:32:23.600Z,7.10
2019-02-20T17:34:50.140Z,7.23
2019-02-20T17:37:16.819Z,8.13
2019-02-20T17:39:43.682Z,8.87
2019-02-20T17:42:10.876Z,8.10
2019-02-20T17:44:37.871Z,7.70
2019-02-20T17:47:04.531Z,8.20
2019-02-20T17:49:31.230Z,8.27
2019-02-20T17:51:58.057Z,7.97
2019-02-20T17:54:24.961Z,7.23
2019-02-20T17:56:52.191Z,7.23
2019-02-20T17:59:18.987Z,8.43
2019-02-20T18:01:45.828Z,7.20
2019-02-20T18:04:12.494Z,6.90
2019-02-20T18:06:39.313Z,6.57
2019-02-20T18:09:06.097Z,7.33
2019-02-20T18:11:32.923Z,8.93
2019-02-20T18:13:59.679Z,10.03
2019-02-20T18:16:26.382Z,10.60
2019-02-20T18:18:52.999Z,7.83
2019-02-20T18:21:19.721Z,7.57
2019-02-20T18:23:46.653Z,8.20
2019-02-20T18:26:13.335Z,8.90
2019-02-20T18:28:40.235Z,9.07
2019-02-20T18:31:06.779Z,8.07
2019-02-20T18:33:33.562Z,7.47
2019-02-20T18:36:00.110Z,7.83
2019-02-20T18:38:26.871Z,7.27
2019-02-20T18:40:55.258Z,8.57
2019-02-20T18:43:22.081Z,7.87
2019-02-20T18:45:48.851Z,8.17
2019-02-20T18:48:15.493Z,8.37
2019-02-20T18:50:42.134Z,8.17
2019-02-20T18:53:08.903Z,7.60
2019-02-20T18:55:35.811Z,7.57
2019-02-20T18:58:02.604Z,8.57
2019-02-20T19:00:29.325Z,8.20
2019-02-20T19:02:56.124Z,8.37
2019-02-20T19:05:22.986Z,7.87
2019-02-20T19:07:49.697Z,8.03
2019-02-20T19:10:26.275Z,8.93
2019-02-20T19:13:34.864Z,7.87
2019-02-20T19:16:39.625Z,7.60
2019-02-20T19:19:39.079Z,7.37
2019-02-20T19:22:57.030Z,7.40
2019-02-20T19:26:01.698Z,8.57
2019-02-20T19:28:47.330Z,7.50
2019-02-20T19:31:33.496Z,9.70
2019-02-20T19:34:25.170Z,9.40
2019-02-20T19:37:42.155Z,9.23
2019-02-20T19:40:51.935Z,8.50
2019-02-20T19:43:49.746Z,7.87
2019-02-20T19:46:45.889Z,8.03
2019-02-20T19:50:09.589Z,6.93
2019-02-20T19:52:49.541Z,8.50
2019-02-20T19:55:43.911Z,7.83
2019-02-20T19:58:33.254Z,6.33
2019-02-20T20:01:54.068Z,8.60
2019-02-20T20:04:52.298Z,7.73
2019-02-20T20:08:25.256Z,6.50
2019-02-20T20:11:45.845Z,7.30
2019-02-20T20:14:30.817Z,6.70
2019-02-20T20:17:36.012Z,8.80
2019-02-20T20:20:14.412Z,6.87
2019-02-20T20:23:32.524Z,8.07
2019-02-20T20:26:47.437Z,8.17
2019-02-20T20:30:04.066Z,7.47
2019-02-20T20:32:52.557Z,7.73
2019-02-20T20:35:51.731Z,8.03
2019-02-20T20:38:47.933Z,8.17
2019-02-20T20:41:45.206Z,7.27
2019-02-20T20:44:37.997Z,9.33
2019-02-20T20:47:37.125Z,7.20
2019-02-20T20:50:18.442Z,8.33
2019-02-20T20:53:42.294Z,6.73
2019-02-20T20:56:39.007Z,7.30
2019-02-20T20:59:21.156Z,7.33
2019-02-20T21:01:55.465Z,7.67
2019-02-20T21:05:01.261Z,6.87
2019-02-20T21:07:56.956Z,7.60
2019-02-20T21:11:17.504Z,7.07
2019-02-20T21:14:25.524Z,7.40
2019-02-20T21:17:50.843Z,7.83
2019-02-20T21:21:09.860Z,7.77
2019-02-20T21:24:15.782Z,6.33
2019-02-20T21:27:25.270Z,8.23
2019-02-20T21:31:01.680Z,7.03
2019-02-20T21:33:54.896Z,6.93
2019-02-20T21:37:15.701Z,6.37
2019-02-20T21:40:05.806Z,6.27
2019-02-20T21:43:10.693Z,8.03
2019-02-20T21:46:25.783Z,8.30
2019-02-20T21:49:40.536Z,7.23
2019-02-20T21:52:54.381Z,7.93
2019-02-20T21:56:00.199Z,7.20
2019-02-20T21:59:11.228Z,6.57
2019-02-20T22:02:04.043Z,7.77
2019-02-20T22:04:47.057Z,7.63
2019-02-20T22:07:58.939Z,8.20
2019-02-20T22:11:08.267Z,7.17
2019-02-20T22:14:00.708Z,6.80
2019-02-20T22:17:02.179Z,7.90
2019-02-20T22:19:52.243Z,6.93
2019-02-20T22:23:16.170Z,8.13
2019-02-20T22:26:02.248Z,6.90
2019-02-20T22:29:11.351Z,6.07
2019-02-20T22:32:35.462Z,8.60
2019-02-20T22:35:53.647Z,8.30
2019-02-20T22:38:48.281Z,7.53
2019-02-20T22:42:05.392Z,7.30
2019-02-20T22:45:16.792Z,7.83
2019-02-20T22:48:25.273Z,6.87
2019-02-20T22:51:44.015Z,8.03
2019-02-20T22:54:42.980Z,7.33
2019-02-20T22:57:54.746Z,7.47
2019-02-20T23:00:57.668Z,6.37
2019-02-20T23:03:33.002Z,7.43
2019-02-20T23:06:28.297Z,7.87
2019-02-20T23:09:25.806Z,7.30
2019-02-20T23:12:31.092Z,8.13
2019-02-20T23:14:57.883Z,7.17
2019-02-20T23:17:27.000Z,6.23
2019-02-20T23:19:53.443Z,5.87
2019-02-20T23:22:20.204Z,7.13
2019-02-20T23:24:46.876Z,6.53
2019-02-20T23:27:13.684Z,6.03
2019-02-20T23:29:40.488Z,6.40
2019-02-20T23:32:07.146Z,6.03
2019-02-20T23:34:33.860Z,7.43
2019-02-20T23:37:00.656Z,7.30
2019-02-20T23:39:27.421Z,5.93
2019-02-20T23:41:54.184Z,7.10
2019-02-20T23:44:20.727Z,5.97
2019-02-20T23:46:47.333Z,6.40
2019-02-20T23:49:14.051Z,7.00
2019-02-20T23:51:40.835Z,6.10
2019-02-20T23:54:07.594Z,6.53
2019-02-20T23:56:34.439Z,6.60
2019-02-20T23:59:01.126Z,7.53
